sensor_id;sensor_type;location;lat;lon;timestamp;P1;durP1;ratioP1;P2;durP2;ratioP2
3465;SDS011;1747;48.884;9.160;2024-01-30T00:01:53;13.18;;;6.50;;
3465;SDS011;1747;48.884;9.160;2024-01-30T00:04:20;13.02;;;6.60;;
3465;SDS011;1747;48.884;9.160;2024-01-30T00:06:47;10.02;;;5.80;;
3465;SDS011;1747;48.884;9.160;2024-01-30T00:09:13;10.98;;;5.97;;
3465;SDS011;1747;48.884;9.160;2024-01-30T00:11:40;10.02;;;6.03;;
3465;SDS011;1747;48.884;9.160;2024-01-30T00:14:07;14.07;;;6.47;;
3465;SDS011;1747;48.884;9.160;2024-01-30T00:16:34;12.20;;;5.70;;
3465;SDS011;1747;48.884;9.160;2024-01-30T00:19:02;10.95;;;5.75;;
3465;SDS011;1747;48.884;9.160;2024-01-30T00:21:29;10.93;;;5.88;;
3465;SDS011;1747;48.884;9.160;2024-01-30T00:23:56;12.85;;;6.38;;
3465;SDS011;1747;48.884;9.160;2024-01-30T00:26:22;12.30;;;6.45;;
3465;SDS011;1747;48.884;9.160;2024-01-30T00:28:49;14.30;;;6.78;;
3465;SDS011;1747;48.884;9.160;2024-01-30T00:31:16;11.95;;;6.38;;
3465;SDS011;1747;48.884;9.160;2024-01-30T00:33:43;13.63;;;6.63;;
3465;SDS011;1747;48.884;9.160;2024-01-30T00:36:11;12.80;;;7.10;;
3465;SDS011;1747;48.884;9.160;2024-01-30T00:38:39;13.77;;;6.72;;
3465;SDS011;1747;48.884;9.160;2024-01-30T00:41:06;12.32;;;7.05;;
3465;SDS011;1747;48.884;9.160;2024-01-30T00:43:34;17.17;;;8.13;;
3465;SDS011;1747;48.884;9.160;2024-01-30T00:46:01;15.88;;;8.55;;
3465;SDS011;1747;48.884;9.160;2024-01-30T00:48:28;14.98;;;8.45;;
3465;SDS011;1747;48.884;9.160;2024-01-30T00:50:55;18.92;;;7.45;;
3465;SDS011;1747;48.884;9.160;2024-01-30T00:53:23;14.95;;;8.60;;
3465;SDS011;1747;48.884;9.160;2024-01-30T00:55:50;15.60;;;7.93;;
3465;SDS011;1747;48.884;9.160;2024-01-30T00:58:17;17.05;;;8.88;;
3465;SDS011;1747;48.884;9.160;2024-01-30T01:00:44;16.98;;;9.00;;
3465;SDS011;1747;48.884;9.160;2024-01-30T01:03:11;17.50;;;8.68;;
3465;SDS011;1747;48.884;9.160;2024-01-30T01:05:39;17.42;;;8.80;;
3465;SDS011;1747;48.884;9.160;2024-01-30T01:08:06;19.70;;;8.63;;
3465;SDS011;1747;48.884;9.160;2024-01-30T01:10:35;18.88;;;9.15;;
3465;SDS011;1747;48.884;9.160;2024-01-30T01:13:02;19.55;;;8.40;;
3465;SDS011;1747;48.884;9.160;2024-01-30T01:15:29;17.80;;;9.45;;
3465;SDS011;1747;48.884;9.160;2024-01-30T01:17:56;16.98;;;9.45;;
3465;SDS011;1747;48.884;9.160;2024-01-30T01:20:23;17.42;;;9.25;;
3465;SDS011;1747;48.884;9.160;2024-01-30T01:22:50;20.42;;;9.27;;
3465;SDS011;1747;48.884;9.160;2024-01-30T01:25:17;18.92;;;9.35;;
3465;SDS011;1747;48.884;9.160;2024-01-30T01:27:49;15.82;;;8.68;;
3465;SDS011;1747;48.884;9.160;2024-01-30T01:30:17;21.67;;;8.65;;
3465;SDS011;1747;48.884;9.160;2024-01-30T01:32:46;23.98;;;9.68;;
3465;SDS011;1747;48.884;9.160;2024-01-30T01:35:19;17.42;;;9.63;;
3465;SDS011;1747;48.884;9.160;2024-01-30T01:37:47;17.75;;;9.45;;
3465;SDS011;1747;48.884;9.160;2024-01-30T01:40:19;17.27;;;9.20;;
3465;SDS011;1747;48.884;9.160;2024-01-30T01:42:48;21.85;;;8.77;;
3465;SDS011;1747;48.884;9.160;2024-01-30T01:45:16;19.88;;;9.05;;
3465;SDS011;1747;48.884;9.160;2024-01-30T01:47:43;16.98;;;8.98;;
3465;SDS011;1747;48.884;9.160;2024-01-30T01:50:12;16.20;;;9.10;;
3465;SDS011;1747;48.884;9.160;2024-01-30T01:52:39;17.20;;;8.65;;
3465;SDS011;1747;48.884;9.160;2024-01-30T01:55:07;15.68;;;8.65;;
3465;SDS011;1747;48.884;9.160;2024-01-30T01:57:34;18.52;;;8.10;;
3465;SDS011;1747;48.884;9.160;2024-01-30T02:00:02;18.27;;;8.88;;
3465;SDS011;1747;48.884;9.160;2024-01-30T02:02:30;16.48;;;8.23;;
3465;SDS011;1747;48.884;9.160;2024-01-30T02:04:59;15.63;;;9.07;;
3465;SDS011;1747;48.884;9.160;2024-01-30T02:07:26;16.88;;;8.50;;
3465;SDS011;1747;48.884;9.160;2024-01-30T02:09:53;15.20;;;8.20;;
3465;SDS011;1747;48.884;9.160;2024-01-30T02:12:21;15.48;;;9.05;;
3465;SDS011;1747;48.884;9.160;2024-01-30T02:14:48;17.13;;;8.65;;
3465;SDS011;1747;48.884;9.160;2024-01-30T02:17:16;13.80;;;7.90;;
3465;SDS011;1747;48.884;9.160;2024-01-30T02:19:43;17.55;;;8.63;;
3465;SDS011;1747;48.884;9.160;2024-01-30T02:22:11;16.25;;;8.63;;
3465;SDS011;1747;48.884;9.160;2024-01-30T02:24:39;17.13;;;8.27;;
3465;SDS011;1747;48.884;9.160;2024-01-30T02:27:06;15.57;;;8.60;;
3465;SDS011;1747;48.884;9.160;2024-01-30T02:29:32;18.60;;;8.48;;
3465;SDS011;1747;48.884;9.160;2024-01-30T02:31:59;20.08;;;8.88;;
3465;SDS011;1747;48.884;9.160;2024-01-30T02:34:26;17.23;;;9.00;;
3465;SDS011;1747;48.884;9.160;2024-01-30T02:36:53;18.77;;;8.57;;
3465;SDS011;1747;48.884;9.160;2024-01-30T02:39:21;17.33;;;9.20;;
3465;SDS011;1747;48.884;9.160;2024-01-30T02:41:48;15.05;;;9.05;;
3465;SDS011;1747;48.884;9.160;2024-01-30T02:44:14;18.88;;;9.20;;
3465;SDS011;1747;48.884;9.160;2024-01-30T02:46:41;17.27;;;9.00;;
3465;SDS011;1747;48.884;9.160;2024-01-30T02:49:08;16.27;;;9.07;;
3465;SDS011;1747;48.884;9.160;2024-01-30T02:51:35;17.85;;;9.02;;
3465;SDS011;1747;48.884;9.160;2024-01-30T02:54:02;22.15;;;9.73;;
3465;SDS011;1747;48.884;9.160;2024-01-30T02:56:30;17.27;;;8.77;;
3465;SDS011;1747;48.884;9.160;2024-01-30T02:58:56;16.02;;;9.02;;
3465;SDS011;1747;48.884;9.160;2024-01-30T03:01:23;18.77;;;9.35;;
3465;SDS011;1747;48.884;9.160;2024-01-30T03:03:50;16.48;;;8.10;;
3465;SDS011;1747;48.884;9.160;2024-01-30T03:06:17;15.48;;;8.40;;
3465;SDS011;1747;48.884;9.160;2024-01-30T03:08:45;12.60;;;7.72;;
3465;SDS011;1747;48.884;9.160;2024-01-30T03:11:12;15.48;;;8.23;;
3465;SDS011;1747;48.884;9.160;2024-01-30T03:13:40;13.57;;;7.97;;
3465;SDS011;1747;48.884;9.160;2024-01-30T03:16:08;15.70;;;8.43;;
3465;SDS011;1747;48.884;9.160;2024-01-30T03:18:34;15.23;;;7.95;;
3465;SDS011;1747;48.884;9.160;2024-01-30T03:21:01;18.48;;;8.30;;
3465;SDS011;1747;48.884;9.160;2024-01-30T03:23:28;12.32;;;7.57;;
3465;SDS011;1747;48.884;9.160;2024-01-30T03:25:57;13.00;;;7.38;;
3465;SDS011;1747;48.884;9.160;2024-01-30T03:28:24;13.90;;;8.07;;
3465;SDS011;1747;48.884;9.160;2024-01-30T03:30:51;11.73;;;7.03;;
3465;SDS011;1747;48.884;9.160;2024-01-30T03:33:18;15.80;;;7.88;;
3465;SDS011;1747;48.884;9.160;2024-01-30T03:35:44;15.10;;;7.80;;
3465;SDS011;1747;48.884;9.160;2024-01-30T03:38:11;16.23;;;7.95;;
3465;SDS011;1747;48.884;9.160;2024-01-30T03:40:38;14.65;;;7.90;;
3465;SDS011;1747;48.884;9.160;2024-01-30T03:43:05;15.05;;;8.40;;
3465;SDS011;1747;48.884;9.160;2024-01-30T03:45:31;15.15;;;7.65;;
3465;SDS011;1747;48.884;9.160;2024-01-30T03:48:00;15.25;;;8.18;;
3465;SDS011;1747;48.884;9.160;2024-01-30T03:50:26;11.45;;;7.20;;
3465;SDS011;1747;48.884;9.160;2024-01-30T03:52:53;17.48;;;7.72;;
3465;SDS011;1747;48.884;9.160;2024-01-30T03:55:20;13.88;;;7.82;;
3465;SDS011;1747;48.884;9.160;2024-01-30T03:57:47;17.30;;;8.57;;
3465;SDS011;1747;48.884;9.160;2024-01-30T04:00:14;17.25;;;7.88;;
3465;SDS011;1747;48.884;9.160;2024-01-30T04:02:41;14.90;;;7.60;;
3465;SDS011;1747;48.884;9.160;2024-01-30T04:05:09;13.65;;;7.75;;
3465;SDS011;1747;48.884;9.160;2024-01-30T04:07:36;14.68;;;7.78;;
3465;SDS011;1747;48.884;9.160;2024-01-30T04:10:03;15.23;;;8.13;;
3465;SDS011;1747;48.884;9.160;2024-01-30T04:12:31;14.85;;;7.90;;
3465;SDS011;1747;48.884;9.160;2024-01-30T04:14:58;15.88;;;8.23;;
3465;SDS011;1747;48.884;9.160;2024-01-30T04:17:25;13.52;;;7.40;;
3465;SDS011;1747;48.884;9.160;2024-01-30T04:19:50;15.48;;;7.55;;
3465;SDS011;1747;48.884;9.160;2024-01-30T04:22:19;17.35;;;7.55;;
3465;SDS011;1747;48.884;9.160;2024-01-30T04:24:45;13.77;;;7.22;;
3465;SDS011;1747;48.884;9.160;2024-01-30T04:27:12;14.95;;;7.53;;
3465;SDS011;1747;48.884;9.160;2024-01-30T04:29:39;12.13;;;7.80;;
3465;SDS011;1747;48.884;9.160;2024-01-30T04:32:06;13.60;;;7.78;;
3465;SDS011;1747;48.884;9.160;2024-01-30T04:34:34;12.88;;;7.45;;
3465;SDS011;1747;48.884;9.160;2024-01-30T04:37:02;13.27;;;7.18;;
3465;SDS011;1747;48.884;9.160;2024-01-30T04:39:30;12.52;;;7.32;;
3465;SDS011;1747;48.884;9.160;2024-01-30T04:41:59;12.55;;;7.38;;
3465;SDS011;1747;48.884;9.160;2024-01-30T04:44:26;14.68;;;7.95;;
3465;SDS011;1747;48.884;9.160;2024-01-30T04:46:53;15.90;;;7.65;;
3465;SDS011;1747;48.884;9.160;2024-01-30T04:49:24;13.27;;;7.90;;
3465;SDS011;1747;48.884;9.160;2024-01-30T04:51:50;13.13;;;7.55;;
3465;SDS011;1747;48.884;9.160;2024-01-30T04:54:17;14.50;;;8.10;;
3465;SDS011;1747;48.884;9.160;2024-01-30T04:56:45;17.17;;;8.27;;
3465;SDS011;1747;48.884;9.160;2024-01-30T04:59:12;12.05;;;7.72;;
3465;SDS011;1747;48.884;9.160;2024-01-30T05:01:39;14.57;;;7.40;;
3465;SDS011;1747;48.884;9.160;2024-01-30T05:04:07;13.55;;;7.18;;
3465;SDS011;1747;48.884;9.160;2024-01-30T05:06:33;13.32;;;7.63;;
3465;SDS011;1747;48.884;9.160;2024-01-30T05:09:00;12.60;;;8.00;;
3465;SDS011;1747;48.884;9.160;2024-01-30T05:11:28;14.50;;;7.10;;
3465;SDS011;1747;48.884;9.160;2024-01-30T05:13:56;13.95;;;7.70;;
3465;SDS011;1747;48.884;9.160;2024-01-30T05:16:22;11.57;;;7.05;;
3465;SDS011;1747;48.884;9.160;2024-01-30T05:18:49;14.98;;;7.72;;
3465;SDS011;1747;48.884;9.160;2024-01-30T05:21:16;13.52;;;8.00;;
3465;SDS011;1747;48.884;9.160;2024-01-30T05:23:44;12.27;;;7.07;;
3465;SDS011;1747;48.884;9.160;2024-01-30T05:26:10;12.82;;;7.20;;
3465;SDS011;1747;48.884;9.160;2024-01-30T05:28:37;13.32;;;7.30;;
3465;SDS011;1747;48.884;9.160;2024-01-30T05:31:05;13.43;;;8.45;;
3465;SDS011;1747;48.884;9.160;2024-01-30T05:33:32;15.60;;;7.40;;
3465;SDS011;1747;48.884;9.160;2024-01-30T05:35:59;13.80;;;7.63;;
3465;SDS011;1747;48.884;9.160;2024-01-30T05:38:26;11.75;;;7.05;;
3465;SDS011;1747;48.884;9.160;2024-01-30T05:40:53;13.63;;;7.95;;
3465;SDS011;1747;48.884;9.160;2024-01-30T05:43:20;12.82;;;7.57;;
3465;SDS011;1747;48.884;9.160;2024-01-30T05:45:47;17.00;;;8.48;;
3465;SDS011;1747;48.884;9.160;2024-01-30T05:48:16;11.40;;;6.93;;
3465;SDS011;1747;48.884;9.160;2024-01-30T05:50:43;14.25;;;8.00;;
3465;SDS011;1747;48.884;9.160;2024-01-30T05:53:10;12.32;;;7.65;;
3465;SDS011;1747;48.884;9.160;2024-01-30T05:55:37;13.23;;;7.00;;
3465;SDS011;1747;48.884;9.160;2024-01-30T05:58:03;16.25;;;6.90;;
3465;SDS011;1747;48.884;9.160;2024-01-30T06:00:30;11.35;;;7.43;;
3465;SDS011;1747;48.884;9.160;2024-01-30T06:02:57;16.17;;;7.68;;
3465;SDS011;1747;48.884;9.160;2024-01-30T06:05:25;13.07;;;7.50;;
3465;SDS011;1747;48.884;9.160;2024-01-30T06:07:52;14.60;;;7.35;;
3465;SDS011;1747;48.884;9.160;2024-01-30T06:10:19;13.32;;;7.60;;
3465;SDS011;1747;48.884;9.160;2024-01-30T06:12:46;14.60;;;7.25;;
3465;SDS011;1747;48.884;9.160;2024-01-30T06:15:13;12.25;;;7.72;;
3465;SDS011;1747;48.884;9.160;2024-01-30T06:17:40;14.32;;;6.85;;
3465;SDS011;1747;48.884;9.160;2024-01-30T06:20:07;13.50;;;7.20;;
3465;SDS011;1747;48.884;9.160;2024-01-30T06:22:35;14.10;;;7.22;;
3465;SDS011;1747;48.884;9.160;2024-01-30T06:25:02;15.27;;;7.88;;
3465;SDS011;1747;48.884;9.160;2024-01-30T06:27:29;12.70;;;7.32;;
3465;SDS011;1747;48.884;9.160;2024-01-30T06:29:56;12.95;;;7.70;;
3465;SDS011;1747;48.884;9.160;2024-01-30T06:32:22;12.30;;;7.05;;
3465;SDS011;1747;48.884;9.160;2024-01-30T06:34:49;14.88;;;8.07;;
3465;SDS011;1747;48.884;9.160;2024-01-30T06:37:16;12.32;;;7.63;;
3465;SDS011;1747;48.884;9.160;2024-01-30T06:39:45;15.80;;;7.43;;
3465;SDS011;1747;48.884;9.160;2024-01-30T06:42:12;13.10;;;7.38;;
3465;SDS011;1747;48.884;9.160;2024-01-30T06:44:39;13.23;;;7.75;;
3465;SDS011;1747;48.884;9.160;2024-01-30T06:47:05;12.88;;;7.50;;
3465;SDS011;1747;48.884;9.160;2024-01-30T06:49:33;12.30;;;6.75;;
3465;SDS011;1747;48.884;9.160;2024-01-30T06:51:59;14.43;;;7.70;;
3465;SDS011;1747;48.884;9.160;2024-01-30T06:54:26;14.40;;;7.72;;
3465;SDS011;1747;48.884;9.160;2024-01-30T06:56:54;11.88;;;7.03;;
3465;SDS011;1747;48.884;9.160;2024-01-30T06:59:21;10.63;;;6.57;;
3465;SDS011;1747;48.884;9.160;2024-01-30T07:01:48;12.65;;;7.30;;
3465;SDS011;1747;48.884;9.160;2024-01-30T07:04:15;13.85;;;7.63;;
3465;SDS011;1747;48.884;9.160;2024-01-30T07:06:43;11.02;;;7.38;;
3465;SDS011;1747;48.884;9.160;2024-01-30T07:09:10;16.33;;;8.07;;
3465;SDS011;1747;48.884;9.160;2024-01-30T07:11:38;15.27;;;7.65;;
3465;SDS011;1747;48.884;9.160;2024-01-30T07:14:07;11.45;;;7.13;;
3465;SDS011;1747;48.884;9.160;2024-01-30T07:16:35;10.95;;;7.43;;
3465;SDS011;1747;48.884;9.160;2024-01-30T07:19:01;19.08;;;8.00;;
3465;SDS011;1747;48.884;9.160;2024-01-30T07:21:28;16.95;;;8.38;;
3465;SDS011;1747;48.884;9.160;2024-01-30T07:23:55;14.60;;;8.32;;
3465;SDS011;1747;48.884;9.160;2024-01-30T07:26:22;13.80;;;7.20;;
3465;SDS011;1747;48.884;9.160;2024-01-30T07:28:49;16.75;;;8.30;;
3465;SDS011;1747;48.884;9.160;2024-01-30T07:31:17;14.30;;;7.80;;
3465;SDS011;1747;48.884;9.160;2024-01-30T07:33:45;15.88;;;8.18;;
3465;SDS011;1747;48.884;9.160;2024-01-30T07:36:12;18.95;;;8.13;;
3465;SDS011;1747;48.884;9.160;2024-01-30T07:38:39;14.43;;;8.23;;
3465;SDS011;1747;48.884;9.160;2024-01-30T07:41:06;14.68;;;7.63;;
3465;SDS011;1747;48.884;9.160;2024-01-30T07:43:33;13.68;;;7.75;;
3465;SDS011;1747;48.884;9.160;2024-01-30T07:46:00;16.38;;;8.00;;
3465;SDS011;1747;48.884;9.160;2024-01-30T07:48:29;12.25;;;7.47;;
3465;SDS011;1747;48.884;9.160;2024-01-30T07:50:56;15.70;;;8.15;;
3465;SDS011;1747;48.884;9.160;2024-01-30T07:53:23;13.90;;;7.55;;
3465;SDS011;1747;48.884;9.160;2024-01-30T07:55:50;13.82;;;6.90;;
3465;SDS011;1747;48.884;9.160;2024-01-30T07:58:16;14.38;;;7.28;;
3465;SDS011;1747;48.884;9.160;2024-01-30T08:00:44;12.75;;;7.28;;
3465;SDS011;1747;48.884;9.160;2024-01-30T08:03:11;12.63;;;7.85;;
3465;SDS011;1747;48.884;9.160;2024-01-30T08:05:39;14.98;;;9.10;;
3465;SDS011;1747;48.884;9.160;2024-01-30T08:08:06;13.68;;;8.10;;
3465;SDS011;1747;48.884;9.160;2024-01-30T08:10:32;13.00;;;7.93;;
3465;SDS011;1747;48.884;9.160;2024-01-30T08:12:59;13.32;;;7.53;;
3465;SDS011;1747;48.884;9.160;2024-01-30T08:15:26;13.10;;;7.07;;
3465;SDS011;1747;48.884;9.160;2024-01-30T08:17:53;14.90;;;7.93;;
3465;SDS011;1747;48.884;9.160;2024-01-30T08:20:23;16.65;;;8.25;;
3465;SDS011;1747;48.884;9.160;2024-01-30T08:22:51;14.93;;;8.20;;
3465;SDS011;1747;48.884;9.160;2024-01-30T08:25:18;14.52;;;7.13;;
3465;SDS011;1747;48.884;9.160;2024-01-30T08:27:46;14.63;;;7.75;;
3465;SDS011;1747;48.884;9.160;2024-01-30T08:30:13;15.93;;;7.38;;
3465;SDS011;1747;48.884;9.160;2024-01-30T08:32:41;12.90;;;8.10;;
3465;SDS011;1747;48.884;9.160;2024-01-30T08:35:07;14.95;;;7.60;;
3465;SDS011;1747;48.884;9.160;2024-01-30T08:37:36;13.82;;;7.95;;
3465;SDS011;1747;48.884;9.160;2024-01-30T08:40:05;15.02;;;7.60;;
3465;SDS011;1747;48.884;9.160;2024-01-30T08:42:35;12.30;;;8.05;;
3465;SDS011;1747;48.884;9.160;2024-01-30T08:45:02;13.50;;;7.95;;
3465;SDS011;1747;48.884;9.160;2024-01-30T08:47:31;13.90;;;7.70;;
3465;SDS011;1747;48.884;9.160;2024-01-30T08:49:58;16.90;;;7.72;;
3465;SDS011;1747;48.884;9.160;2024-01-30T08:52:25;13.75;;;7.80;;
3465;SDS011;1747;48.884;9.160;2024-01-30T08:54:51;14.02;;;7.65;;
3465;SDS011;1747;48.884;9.160;2024-01-30T08:57:20;11.93;;;7.13;;
3465;SDS011;1747;48.884;9.160;2024-01-30T08:59:47;13.43;;;6.95;;
3465;SDS011;1747;48.884;9.160;2024-01-30T09:02:14;13.63;;;7.35;;
3465;SDS011;1747;48.884;9.160;2024-01-30T09:04:43;17.95;;;7.78;;
3465;SDS011;1747;48.884;9.160;2024-01-30T09:07:10;13.50;;;7.15;;
3465;SDS011;1747;48.884;9.160;2024-01-30T09:09:38;13.32;;;8.02;;
3465;SDS011;1747;48.884;9.160;2024-01-30T09:12:06;15.10;;;7.55;;
3465;SDS011;1747;48.884;9.160;2024-01-30T09:14:35;11.50;;;6.90;;
3465;SDS011;1747;48.884;9.160;2024-01-30T09:17:03;12.23;;;6.75;;
3465;SDS011;1747;48.884;9.160;2024-01-30T09:19:30;11.13;;;6.82;;
3465;SDS011;1747;48.884;9.160;2024-01-30T09:21:57;14.30;;;7.18;;
3465;SDS011;1747;48.884;9.160;2024-01-30T09:24:23;13.35;;;7.65;;
3465;SDS011;1747;48.884;9.160;2024-01-30T09:26:51;11.07;;;7.05;;
3465;SDS011;1747;48.884;9.160;2024-01-30T09:29:18;12.65;;;7.68;;
3465;SDS011;1747;48.884;9.160;2024-01-30T09:31:46;14.43;;;8.77;;
3465;SDS011;1747;48.884;9.160;2024-01-30T09:34:13;13.38;;;7.57;;
3465;SDS011;1747;48.884;9.160;2024-01-30T09:36:40;12.70;;;7.18;;
3465;SDS011;1747;48.884;9.160;2024-01-30T09:39:07;12.82;;;7.80;;
3465;SDS011;1747;48.884;9.160;2024-01-30T09:41:34;13.18;;;7.93;;
3465;SDS011;1747;48.884;9.160;2024-01-30T09:44:06;12.02;;;6.90;;
3465;SDS011;1747;48.884;9.160;2024-01-30T09:46:35;12.40;;;6.78;;
3465;SDS011;1747;48.884;9.160;2024-01-30T09:49:03;11.75;;;6.63;;
3465;SDS011;1747;48.884;9.160;2024-01-30T09:51:32;10.10;;;7.40;;
3465;SDS011;1747;48.884;9.160;2024-01-30T09:53:59;11.43;;;7.22;;
3465;SDS011;1747;48.884;9.160;2024-01-30T09:56:26;9.85;;;7.07;;
3465;SDS011;1747;48.884;9.160;2024-01-30T09:58:53;11.50;;;7.40;;
3465;SDS011;1747;48.884;9.160;2024-01-30T10:01:19;14.75;;;8.60;;
3465;SDS011;1747;48.884;9.160;2024-01-30T10:03:46;12.25;;;7.57;;
3465;SDS011;1747;48.884;9.160;2024-01-30T10:06:15;12.35;;;7.90;;
3465;SDS011;1747;48.884;9.160;2024-01-30T10:08:43;12.95;;;7.18;;
3465;SDS011;1747;48.884;9.160;2024-01-30T10:11:09;12.38;;;7.57;;
3465;SDS011;1747;48.884;9.160;2024-01-30T10:13:38;12.95;;;7.45;;
3465;SDS011;1747;48.884;9.160;2024-01-30T10:16:05;11.90;;;7.32;;
3465;SDS011;1747;48.884;9.160;2024-01-30T10:18:32;16.90;;;8.05;;
3465;SDS011;1747;48.884;9.160;2024-01-30T10:20:59;13.70;;;7.60;;
3465;SDS011;1747;48.884;9.160;2024-01-30T10:23:28;11.35;;;7.95;;
3465;SDS011;1747;48.884;9.160;2024-01-30T10:25:55;15.50;;;8.20;;
3465;SDS011;1747;48.884;9.160;2024-01-30T10:28:22;12.90;;;7.85;;
3465;SDS011;1747;48.884;9.160;2024-01-30T10:30:56;12.00;;;7.72;;
3465;SDS011;1747;48.884;9.160;2024-01-30T10:33:25;13.55;;;7.70;;
3465;SDS011;1747;48.884;9.160;2024-01-30T10:35:53;11.15;;;7.60;;
3465;SDS011;1747;48.884;9.160;2024-01-30T10:38:22;12.88;;;8.90;;
3465;SDS011;1747;48.884;9.160;2024-01-30T10:40:54;15.60;;;8.40;;
3465;SDS011;1747;48.884;9.160;2024-01-30T10:43:23;14.25;;;9.13;;
3465;SDS011;1747;48.884;9.160;2024-01-30T10:45:55;13.38;;;8.80;;
3465;SDS011;1747;48.884;9.160;2024-01-30T10:48:28;20.13;;;9.02;;
3465;SDS011;1747;48.884;9.160;2024-01-30T10:50:56;13.45;;;8.07;;
3465;SDS011;1747;48.884;9.160;2024-01-30T10:53:26;12.40;;;8.05;;
3465;SDS011;1747;48.884;9.160;2024-01-30T10:55:55;14.43;;;7.90;;
3465;SDS011;1747;48.884;9.160;2024-01-30T10:58:23;10.95;;;7.40;;
3465;SDS011;1747;48.884;9.160;2024-01-30T11:00:51;18.75;;;9.50;;
3465;SDS011;1747;48.884;9.160;2024-01-30T11:03:18;14.93;;;8.43;;
3465;SDS011;1747;48.884;9.160;2024-01-30T11:05:48;16.42;;;8.10;;
3465;SDS011;1747;48.884;9.160;2024-01-30T11:08:22;14.15;;;8.07;;
3465;SDS011;1747;48.884;9.160;2024-01-30T11:10:49;15.10;;;8.52;;
3465;SDS011;1747;48.884;9.160;2024-01-30T11:13:21;13.98;;;9.13;;
3465;SDS011;1747;48.884;9.160;2024-01-30T11:15:48;17.00;;;8.90;;
3465;SDS011;1747;48.884;9.160;2024-01-30T11:18:22;14.35;;;7.82;;
3465;SDS011;1747;48.884;9.160;2024-01-30T11:20:50;21.17;;;8.27;;
3465;SDS011;1747;48.884;9.160;2024-01-30T11:23:17;15.40;;;8.68;;
3465;SDS011;1747;48.884;9.160;2024-01-30T11:25:44;20.30;;;8.93;;
3465;SDS011;1747;48.884;9.160;2024-01-30T11:28:13;16.02;;;8.95;;
3465;SDS011;1747;48.884;9.160;2024-01-30T11:30:42;17.27;;;9.52;;
3465;SDS011;1747;48.884;9.160;2024-01-30T11:33:09;14.65;;;8.90;;
3465;SDS011;1747;48.884;9.160;2024-01-30T11:35:38;12.00;;;8.90;;
3465;SDS011;1747;48.884;9.160;2024-01-30T11:38:05;15.73;;;8.73;;
3465;SDS011;1747;48.884;9.160;2024-01-30T11:40:34;11.05;;;8.30;;
3465;SDS011;1747;48.884;9.160;2024-01-30T11:43:01;12.88;;;8.45;;
3465;SDS011;1747;48.884;9.160;2024-01-30T11:45:31;14.85;;;8.68;;
3465;SDS011;1747;48.884;9.160;2024-01-30T11:47:59;14.82;;;9.38;;
3465;SDS011;1747;48.884;9.160;2024-01-30T11:50:28;16.13;;;8.32;;
3465;SDS011;1747;48.884;9.160;2024-01-30T11:52:56;12.35;;;7.97;;
3465;SDS011;1747;48.884;9.160;2024-01-30T11:55:23;12.93;;;8.43;;
3465;SDS011;1747;48.884;9.160;2024-01-30T11:57:50;16.23;;;8.63;;
3465;SDS011;1747;48.884;9.160;2024-01-30T12:00:17;14.88;;;8.70;;
3465;SDS011;1747;48.884;9.160;2024-01-30T12:02:48;14.80;;;8.25;;
3465;SDS011;1747;48.884;9.160;2024-01-30T12:05:18;18.60;;;8.55;;
3465;SDS011;1747;48.884;9.160;2024-01-30T12:07:46;13.77;;;8.32;;
3465;SDS011;1747;48.884;9.160;2024-01-30T12:10:13;13.13;;;7.85;;
3465;SDS011;1747;48.884;9.160;2024-01-30T12:12:40;13.55;;;8.40;;
3465;SDS011;1747;48.884;9.160;2024-01-30T12:15:09;16.98;;;8.50;;
3465;SDS011;1747;48.884;9.160;2024-01-30T12:17:36;15.18;;;8.27;;
3465;SDS011;1747;48.884;9.160;2024-01-30T12:20:04;15.93;;;8.70;;
3465;SDS011;1747;48.884;9.160;2024-01-30T12:22:33;22.08;;;8.57;;
3465;SDS011;1747;48.884;9.160;2024-01-30T12:25:02;18.77;;;9.20;;
3465;SDS011;1747;48.884;9.160;2024-01-30T12:27:30;15.75;;;9.10;;
3465;SDS011;1747;48.884;9.160;2024-01-30T12:29:57;15.88;;;8.23;;
3465;SDS011;1747;48.884;9.160;2024-01-30T12:32:24;14.75;;;9.13;;
3465;SDS011;1747;48.884;9.160;2024-01-30T12:34:54;14.98;;;8.20;;
3465;SDS011;1747;48.884;9.160;2024-01-30T12:37:21;15.27;;;7.78;;
3465;SDS011;1747;48.884;9.160;2024-01-30T12:39:51;14.57;;;8.75;;
3465;SDS011;1747;48.884;9.160;2024-01-30T12:42:19;12.35;;;7.70;;
3465;SDS011;1747;48.884;9.160;2024-01-30T12:44:47;13.70;;;7.85;;
3465;SDS011;1747;48.884;9.160;2024-01-30T12:47:14;12.13;;;7.97;;
3465;SDS011;1747;48.884;9.160;2024-01-30T12:49:42;11.98;;;7.70;;
3465;SDS011;1747;48.884;9.160;2024-01-30T12:52:09;14.23;;;7.85;;
3465;SDS011;1747;48.884;9.160;2024-01-30T12:54:36;11.52;;;7.80;;
3465;SDS011;1747;48.884;9.160;2024-01-30T12:57:05;14.40;;;7.82;;
3465;SDS011;1747;48.884;9.160;2024-01-30T12:59:32;15.13;;;7.85;;
3465;SDS011;1747;48.884;9.160;2024-01-30T13:02:02;12.40;;;7.47;;
3465;SDS011;1747;48.884;9.160;2024-01-30T13:04:29;12.00;;;7.53;;
3465;SDS011;1747;48.884;9.160;2024-01-30T13:06:56;15.65;;;7.90;;
3465;SDS011;1747;48.884;9.160;2024-01-30T13:09:23;10.93;;;7.53;;
3465;SDS011;1747;48.884;9.160;2024-01-30T13:11:50;20.23;;;8.52;;
3465;SDS011;1747;48.884;9.160;2024-01-30T13:14:19;14.65;;;8.38;;
3465;SDS011;1747;48.884;9.160;2024-01-30T13:16:45;13.30;;;8.80;;
3465;SDS011;1747;48.884;9.160;2024-01-30T13:19:12;18.88;;;8.90;;
3465;SDS011;1747;48.884;9.160;2024-01-30T13:21:39;15.15;;;8.55;;
3465;SDS011;1747;48.884;9.160;2024-01-30T13:24:06;17.38;;;9.07;;
3465;SDS011;1747;48.884;9.160;2024-01-30T13:26:33;15.90;;;9.35;;
3465;SDS011;1747;48.884;9.160;2024-01-30T13:29:00;19.63;;;9.90;;
3465;SDS011;1747;48.884;9.160;2024-01-30T13:31:30;16.25;;;9.50;;
3465;SDS011;1747;48.884;9.160;2024-01-30T13:33:56;17.60;;;9.68;;
3465;SDS011;1747;48.884;9.160;2024-01-30T13:36:23;14.63;;;8.27;;
3465;SDS011;1747;48.884;9.160;2024-01-30T13:38:50;11.68;;;8.70;;
3465;SDS011;1747;48.884;9.160;2024-01-30T13:41:17;18.98;;;8.85;;
3465;SDS011;1747;48.884;9.160;2024-01-30T13:43:45;17.75;;;9.73;;
3465;SDS011;1747;48.884;9.160;2024-01-30T13:46:12;13.73;;;8.95;;
3465;SDS011;1747;48.884;9.160;2024-01-30T13:48:41;13.93;;;8.90;;
3465;SDS011;1747;48.884;9.160;2024-01-30T13:51:07;18.60;;;9.57;;
3465;SDS011;1747;48.884;9.160;2024-01-30T13:53:36;18.05;;;9.48;;
3465;SDS011;1747;48.884;9.160;2024-01-30T13:56:03;15.35;;;9.82;;
3465;SDS011;1747;48.884;9.160;2024-01-30T13:58:31;19.38;;;9.18;;
3465;SDS011;1747;48.884;9.160;2024-01-30T14:00:58;19.58;;;9.55;;
3465;SDS011;1747;48.884;9.160;2024-01-30T14:03:25;17.00;;;9.38;;
3465;SDS011;1747;48.884;9.160;2024-01-30T14:05:54;15.05;;;8.98;;
3465;SDS011;1747;48.884;9.160;2024-01-30T14:08:21;17.33;;;8.98;;
3465;SDS011;1747;48.884;9.160;2024-01-30T14:10:51;17.90;;;9.02;;
3465;SDS011;1747;48.884;9.160;2024-01-30T14:13:18;25.08;;;9.27;;
3465;SDS011;1747;48.884;9.160;2024-01-30T14:15:45;17.73;;;8.55;;
3465;SDS011;1747;48.884;9.160;2024-01-30T14:18:12;16.75;;;8.75;;
3465;SDS011;1747;48.884;9.160;2024-01-30T14:20:39;17.75;;;8.90;;
3465;SDS011;1747;48.884;9.160;2024-01-30T14:23:07;14.70;;;8.05;;
3465;SDS011;1747;48.884;9.160;2024-01-30T14:25:34;19.05;;;8.93;;
3465;SDS011;1747;48.884;9.160;2024-01-30T14:28:01;14.18;;;8.63;;
3465;SDS011;1747;48.884;9.160;2024-01-30T14:30:29;15.20;;;8.43;;
3465;SDS011;1747;48.884;9.160;2024-01-30T14:32:56;16.95;;;9.38;;
3465;SDS011;1747;48.884;9.160;2024-01-30T14:35:23;15.27;;;8.48;;
3465;SDS011;1747;48.884;9.160;2024-01-30T14:37:50;22.63;;;8.75;;
3465;SDS011;1747;48.884;9.160;2024-01-30T14:40:19;23.15;;;9.38;;
3465;SDS011;1747;48.884;9.160;2024-01-30T14:42:46;21.05;;;9.98;;
3465;SDS011;1747;48.884;9.160;2024-01-30T14:45:13;19.10;;;9.57;;
3465;SDS011;1747;48.884;9.160;2024-01-30T14:47:41;15.48;;;9.70;;
3465;SDS011;1747;48.884;9.160;2024-01-30T14:50:08;15.65;;;9.25;;
3465;SDS011;1747;48.884;9.160;2024-01-30T14:52:34;16.70;;;8.90;;
3465;SDS011;1747;48.884;9.160;2024-01-30T14:55:02;19.02;;;9.43;;
3465;SDS011;1747;48.884;9.160;2024-01-30T14:57:30;17.20;;;9.82;;
3465;SDS011;1747;48.884;9.160;2024-01-30T14:59:59;16.00;;;9.90;;
3465;SDS011;1747;48.884;9.160;2024-01-30T15:02:26;15.88;;;10.18;;